Aviation Digital Data Service (ADDS)

Output produced by METARs form (0438 UTC 26 April 2019)
found at http://www.aviationweather.gov/metar/data/
 
METAR text: TTCP 260400Z 09004KT 9999 FEW016 27/24 Q1015 NOSIG
Conditions at: TTCP (CROWN PT/SCARBOR, TT) observed 0400 UTC 26 April 2019
Temperature: 27.0°C (81°F)
Dewpoint: 24.0°C (75°F) [RH = 84%]
Pressure (altimeter): 29.97 inches Hg (1015.0 mb)
Winds: from the E (90 degrees) at 5 MPH (4 knots; 2.1 m/s)
Visibility: 6 or more miles (10+ km)
Ceiling: at least 12,000 feet AGL
Clouds: few clouds at 1600 feet AGL
Weather: no significant weather observed at this time

METAR text: TTCP 260300Z 08004KT 9999 FEW016 27/24 Q1015 NOSIG
Conditions at: TTCP (CROWN PT/SCARBOR, TT) observed 0300 UTC 26 April 2019
Temperature: 27.0°C (81°F)
Dewpoint: 24.0°C (75°F) [RH = 84%]
Pressure (altimeter): 29.97 inches Hg (1015.0 mb)
Winds: from the E (80 degrees) at 5 MPH (4 knots; 2.1 m/s)
Visibility: 6 or more miles (10+ km)
Ceiling: at least 12,000 feet AGL
Clouds: few clouds at 1600 feet AGL
Weather: no significant weather observed at this time

METAR text: TTCP 260200Z 09005KT 9999 FEW016 27/24 Q1015 NOSIG
Conditions at: TTCP (CROWN PT/SCARBOR, TT) observed 0200 UTC 26 April 2019
Temperature: 27.0°C (81°F)
Dewpoint: 24.0°C (75°F) [RH = 84%]
Pressure (altimeter): 29.97 inches Hg (1015.0 mb)
Winds: from the E (90 degrees) at 6 MPH (5 knots; 2.6 m/s)
Visibility: 6 or more miles (10+ km)
Ceiling: at least 12,000 feet AGL
Clouds: few clouds at 1600 feet AGL
Weather: no significant weather observed at this time

METAR text: TTCP 260100Z 06004KT 9999 FEW016 27/24 Q1014 NOSIG
Conditions at: TTCP (CROWN PT/SCARBOR, TT) observed 0100 UTC 26 April 2019
Temperature: 27.0°C (81°F)
Dewpoint: 24.0°C (75°F) [RH = 84%]
Pressure (altimeter): 29.94 inches Hg (1014.0 mb)
Winds: from the ENE (60 degrees) at 5 MPH (4 knots; 2.1 m/s)
Visibility: 6 or more miles (10+ km)
Ceiling: at least 12,000 feet AGL
Clouds: few clouds at 1600 feet AGL
Weather: no significant weather observed at this time

METAR text: TTCP 260000Z 10005KT 9999 SCT016 28/24 Q1014 NOSIG
Conditions at: TTCP (CROWN PT/SCARBOR, TT) observed 0000 UTC 26 April 2019
Temperature: 28.0°C (82°F)
Dewpoint: 24.0°C (75°F) [RH = 79%]
Pressure (altimeter): 29.94 inches Hg (1014.0 mb)
Winds: from the E (100 degrees) at 6 MPH (5 knots; 2.6 m/s)
Visibility: 6 or more miles (10+ km)
Ceiling: at least 12,000 feet AGL
Clouds: scattered clouds at 1600 feet AGL
Weather: no significant weather observed at this time

METAR text: TTCP 252300Z 10007KT 9999 FEW016 27/23 Q1013 NOSIG
Conditions at: TTCP (CROWN PT/SCARBOR, TT) observed 2300 UTC 25 April 2019
Temperature: 27.0°C (81°F)
Dewpoint: 23.0°C (73°F) [RH = 79%]
Pressure (altimeter): 29.91 inches Hg (1013.0 mb)
Winds: from the E (100 degrees) at 8 MPH (7 knots; 3.6 m/s)
Visibility: 6 or more miles (10+ km)
Ceiling: at least 12,000 feet AGL
Clouds: few clouds at 1600 feet AGL
Weather: no significant weather observed at this time

METAR text: TTCP 252200Z 11009KT 9999 FEW016 28/24 Q1012 NOSIG
Conditions at: TTCP (CROWN PT/SCARBOR, TT) observed 2200 UTC 25 April 2019
Temperature: 28.0°C (82°F)
Dewpoint: 24.0°C (75°F) [RH = 79%]
Pressure (altimeter): 29.88 inches Hg (1012.0 mb)
Winds: from the ESE (110 degrees) at 10 MPH (9 knots; 4.6 m/s)
Visibility: 6 or more miles (10+ km)
Ceiling: at least 12,000 feet AGL
Clouds: few clouds at 1600 feet AGL
Weather: no significant weather observed at this time

METAR text: TTCP 252100Z 11011KT 9999 FEW018 28/24 Q1012 NOSIG
Conditions at: TTCP (CROWN PT/SCARBOR, TT) observed 2100 UTC 25 April 2019
Temperature: 28.0°C (82°F)
Dewpoint: 24.0°C (75°F) [RH = 79%]
Pressure (altimeter): 29.88 inches Hg (1012.0 mb)
Winds: from the ESE (110 degrees) at 13 MPH (11 knots; 5.7 m/s)
Visibility: 6 or more miles (10+ km)
Ceiling: at least 12,000 feet AGL
Clouds: few clouds at 1800 feet AGL
Weather: no significant weather observed at this time

METAR text: TTCP 252000Z 11011KT 9999 VCSH FEW018 29/24 Q1012 NOSIG RMK VCSH SE
Conditions at: TTCP (CROWN PT/SCARBOR, TT) observed 2000 UTC 25 April 2019
Temperature: 29.0°C (84°F)
Dewpoint: 24.0°C (75°F) [RH = 74%]
Pressure (altimeter): 29.88 inches Hg (1012.0 mb)
Winds: from the ESE (110 degrees) at 13 MPH (11 knots; 5.7 m/s)
Visibility: 6 or more miles (10+ km)
Ceiling: at least 12,000 feet AGL
Clouds: few clouds at 1800 feet AGL
Weather: VCSH  (showers in vicinity)

METAR text: TTCP 251900Z 13014KT 9999 VCSH FEW018 29/24 Q1012 NOSIG RMK VCSH S
Conditions at: TTCP (CROWN PT/SCARBOR, TT) observed 1900 UTC 25 April 2019
Temperature: 29.0°C (84°F)
Dewpoint: 24.0°C (75°F) [RH = 74%]
Pressure (altimeter): 29.88 inches Hg (1012.0 mb)
Winds: from the SE (130 degrees) at 16 MPH (14 knots; 7.2 m/s)
Visibility: 6 or more miles (10+ km)
Ceiling: at least 12,000 feet AGL
Clouds: few clouds at 1800 feet AGL
Weather: VCSH  (showers in vicinity)

METAR text: TTCP 251800Z 11011KT 9999 -SHRA VCSH SCT020 28/24 Q1013 NOSIG RMK VCSH NE AND W
Conditions at: TTCP (CROWN PT/SCARBOR, TT) observed 1800 UTC 25 April 2019
Temperature: 28.0°C (82°F)
Dewpoint: 24.0°C (75°F) [RH = 79%]
Pressure (altimeter): 29.91 inches Hg (1013.0 mb)
Winds: from the ESE (110 degrees) at 13 MPH (11 knots; 5.7 m/s)
Visibility: 6 or more miles (10+ km)
Ceiling: at least 12,000 feet AGL
Clouds: scattered clouds at 2000 feet AGL
Weather: -SHRA VCSH  (light rain showers, showers in vicinity)

METAR text: TTCP 251600Z 12013KT 9999 SCT020 29/24 Q1014 NOSIG
Conditions at: TTCP (CROWN PT/SCARBOR, TT) observed 1600 UTC 25 April 2019
Temperature: 29.0°C (84°F)
Dewpoint: 24.0°C (75°F) [RH = 74%]
Pressure (altimeter): 29.94 inches Hg (1014.0 mb)
Winds: from the ESE (120 degrees) at 15 MPH (13 knots; 6.7 m/s)
Visibility: 6 or more miles (10+ km)
Ceiling: at least 12,000 feet AGL
Clouds: scattered clouds at 2000 feet AGL
Weather: no significant weather observed at this time

METAR text: TTCP 251500Z 12014KT 9999 FEW018 29/24 Q1014
Conditions at: TTCP (CROWN PT/SCARBOR, TT) observed 1500 UTC 25 April 2019
Temperature: 29.0°C (84°F)
Dewpoint: 24.0°C (75°F) [RH = 74%]
Pressure (altimeter): 29.94 inches Hg (1014.0 mb)
Winds: from the ESE (120 degrees) at 16 MPH (14 knots; 7.2 m/s)
Visibility: 6 or more miles (10+ km)
Ceiling: at least 12,000 feet AGL
Clouds: few clouds at 1800 feet AGL
Weather: no significant weather observed at this time

METAR text: TTCP 251400Z 11012KT 9999 -SHRA SCT018 30/24 Q1014 NOSIG
Conditions at: TTCP (CROWN PT/SCARBOR, TT) observed 1400 UTC 25 April 2019
Temperature: 30.0°C (86°F)
Dewpoint: 24.0°C (75°F) [RH = 70%]
Pressure (altimeter): 29.94 inches Hg (1014.0 mb)
Winds: from the ESE (110 degrees) at 14 MPH (12 knots; 6.2 m/s)
Visibility: 6 or more miles (10+ km)
Ceiling: at least 12,000 feet AGL
Clouds: scattered clouds at 1800 feet AGL
Weather: -SHRA  (light rain showers)

METAR text: TTCP 251300Z 11012KT 9999 FEW018 29/24 Q1014
Conditions at: TTCP (CROWN PT/SCARBOR, TT) observed 1300 UTC 25 April 2019
Temperature: 29.0°C (84°F)
Dewpoint: 24.0°C (75°F) [RH = 74%]
Pressure (altimeter): 29.94 inches Hg (1014.0 mb)
Winds: from the ESE (110 degrees) at 14 MPH (12 knots; 6.2 m/s)
Visibility: 6 or more miles (10+ km)
Ceiling: at least 12,000 feet AGL
Clouds: few clouds at 1800 feet AGL
Weather: no significant weather observed at this time

METAR text: TTCP 251200Z 10011KT 9999 FEW018 28/23 Q1014 NOSIG
Conditions at: TTCP (CROWN PT/SCARBOR, TT) observed 1200 UTC 25 April 2019
Temperature: 28.0°C (82°F)
Dewpoint: 23.0°C (73°F) [RH = 74%]
Pressure (altimeter): 29.94 inches Hg (1014.0 mb)
Winds: from the E (100 degrees) at 13 MPH (11 knots; 5.7 m/s)
Visibility: 6 or more miles (10+ km)
Ceiling: at least 12,000 feet AGL
Clouds: few clouds at 1800 feet AGL
Weather: no significant weather observed at this time

METAR text: TTCP 251100Z 10008KT 9999 FEW016 28/24 Q1013 NOSIG
Conditions at: TTCP (CROWN PT/SCARBOR, TT) observed 1100 UTC 25 April 2019
Temperature: 28.0°C (82°F)
Dewpoint: 24.0°C (75°F) [RH = 79%]
Pressure (altimeter): 29.91 inches Hg (1013.0 mb)
Winds: from the E (100 degrees) at 9 MPH (8 knots; 4.1 m/s)
Visibility: 6 or more miles (10+ km)
Ceiling: at least 12,000 feet AGL
Clouds: few clouds at 1600 feet AGL
Weather: no significant weather observed at this time

METAR text: TTCP 251000Z 10006KT 9999 FEW016 27/24 Q1012 NOSIG
Conditions at: TTCP (CROWN PT/SCARBOR, TT) observed 1000 UTC 25 April 2019
Temperature: 27.0°C (81°F)
Dewpoint: 24.0°C (75°F) [RH = 84%]
Pressure (altimeter): 29.88 inches Hg (1012.0 mb)
Winds: from the E (100 degrees) at 7 MPH (6 knots; 3.1 m/s)
Visibility: 6 or more miles (10+ km)
Ceiling: at least 12,000 feet AGL
Clouds: few clouds at 1600 feet AGL
Weather: no significant weather observed at this time

METAR text: TTCP 250900Z 09006KT 9999 FEW016 27/24 Q1012 NOSIG
Conditions at: TTCP (CROWN PT/SCARBOR, TT) observed 0900 UTC 25 April 2019
Temperature: 27.0°C (81°F)
Dewpoint: 24.0°C (75°F) [RH = 84%]
Pressure (altimeter): 29.88 inches Hg (1012.0 mb)
Winds: from the E (90 degrees) at 7 MPH (6 knots; 3.1 m/s)
Visibility: 6 or more miles (10+ km)
Ceiling: at least 12,000 feet AGL
Clouds: few clouds at 1600 feet AGL
Weather: no significant weather observed at this time

METAR text: TTCP 250800Z 11011KT 9999 FEW016 27/23 Q1011 NOSIG
Conditions at: TTCP (CROWN PT/SCARBOR, TT) observed 0800 UTC 25 April 2019
Temperature: 27.0°C (81°F)
Dewpoint: 23.0°C (73°F) [RH = 79%]
Pressure (altimeter): 29.85 inches Hg (1011.0 mb)
Winds: from the ESE (110 degrees) at 13 MPH (11 knots; 5.7 m/s)
Visibility: 6 or more miles (10+ km)
Ceiling: at least 12,000 feet AGL
Clouds: few clouds at 1600 feet AGL
Weather: no significant weather observed at this time

METAR text: TTCP 250700Z 10008KT 9999 FEW018 27/23 Q1011 NOSIG
Conditions at: TTCP (CROWN PT/SCARBOR, TT) observed 0700 UTC 25 April 2019
Temperature: 27.0°C (81°F)
Dewpoint: 23.0°C (73°F) [RH = 79%]
Pressure (altimeter): 29.85 inches Hg (1011.0 mb)
Winds: from the E (100 degrees) at 9 MPH (8 knots; 4.1 m/s)
Visibility: 6 or more miles (10+ km)
Ceiling: at least 12,000 feet AGL
Clouds: few clouds at 1800 feet AGL
Weather: no significant weather observed at this time

METAR text: TTCP 250500Z 09006KT 9999 SCT016 27/24 Q1013 NOSIG
Conditions at: TTCP (CROWN PT/SCARBOR, TT) observed 0500 UTC 25 April 2019
Temperature: 27.0°C (81°F)
Dewpoint: 24.0°C (75°F) [RH = 84%]
Pressure (altimeter): 29.91 inches Hg (1013.0 mb)
Winds: from the E (90 degrees) at 7 MPH (6 knots; 3.1 m/s)
Visibility: 6 or more miles (10+ km)
Ceiling: at least 12,000 feet AGL
Clouds: scattered clouds at 1600 feet AGL
Weather: no significant weather observed at this time

METAR text: TTCP 250400Z 09006KT 9999 FEW016 27/23 Q1013 NOSIG
Conditions at: TTCP (CROWN PT/SCARBOR, TT) observed 0400 UTC 25 April 2019
Temperature: 27.0°C (81°F)
Dewpoint: 23.0°C (73°F) [RH = 79%]
Pressure (altimeter): 29.91 inches Hg (1013.0 mb)
Winds: from the E (90 degrees) at 7 MPH (6 knots; 3.1 m/s)
Visibility: 6 or more miles (10+ km)
Ceiling: at least 12,000 feet AGL
Clouds: few clouds at 1600 feet AGL
Weather: no significant weather observed at this time

METAR text: TTCP 250300Z 08005KT 9999 FEW016 27/23 Q1014 NOSIG
Conditions at: TTCP (CROWN PT/SCARBOR, TT) observed 0300 UTC 25 April 2019
Temperature: 27.0°C (81°F)
Dewpoint: 23.0°C (73°F) [RH = 79%]
Pressure (altimeter): 29.94 inches Hg (1014.0 mb)
Winds: from the E (80 degrees) at 6 MPH (5 knots; 2.6 m/s)
Visibility: 6 or more miles (10+ km)
Ceiling: at least 12,000 feet AGL
Clouds: few clouds at 1600 feet AGL
Weather: no significant weather observed at this time

METAR text: TTCP 250200Z 09007KT 9999 FEW018 27/24 Q1014 NOSIG
Conditions at: TTCP (CROWN PT/SCARBOR, TT) observed 0200 UTC 25 April 2019
Temperature: 27.0°C (81°F)
Dewpoint: 24.0°C (75°F) [RH = 84%]
Pressure (altimeter): 29.94 inches Hg (1014.0 mb)
Winds: from the E (90 degrees) at 8 MPH (7 knots; 3.6 m/s)
Visibility: 6 or more miles (10+ km)
Ceiling: at least 12,000 feet AGL
Clouds: few clouds at 1800 feet AGL
Weather: no significant weather observed at this time

METAR text: TTCP 250100Z 10007KT 9999 FEW018 27/23 Q1013 NOSIG
Conditions at: TTCP (CROWN PT/SCARBOR, TT) observed 0100 UTC 25 April 2019
Temperature: 27.0°C (81°F)
Dewpoint: 23.0°C (73°F) [RH = 79%]
Pressure (altimeter): 29.91 inches Hg (1013.0 mb)
Winds: from the E (100 degrees) at 8 MPH (7 knots; 3.6 m/s)
Visibility: 6 or more miles (10+ km)
Ceiling: at least 12,000 feet AGL
Clouds: few clouds at 1800 feet AGL
Weather: no significant weather observed at this time

METAR text: TTCP 250000Z 10007KT 9999 FEW018 27/23 Q1012 NOSIG
Conditions at: TTCP (CROWN PT/SCARBOR, TT) observed 0000 UTC 25 April 2019
Temperature: 27.0°C (81°F)
Dewpoint: 23.0°C (73°F) [RH = 79%]
Pressure (altimeter): 29.88 inches Hg (1012.0 mb)
Winds: from the E (100 degrees) at 8 MPH (7 knots; 3.6 m/s)
Visibility: 6 or more miles (10+ km)
Ceiling: at least 12,000 feet AGL
Clouds: few clouds at 1800 feet AGL
Weather: no significant weather observed at this time

METAR text: TTCP 242300Z 10007KT 9999 FEW018 27/23 Q1011 NOSIG
Conditions at: TTCP (CROWN PT/SCARBOR, TT) observed 2300 UTC 24 April 2019
Temperature: 27.0°C (81°F)
Dewpoint: 23.0°C (73°F) [RH = 79%]
Pressure (altimeter): 29.85 inches Hg (1011.0 mb)
Winds: from the E (100 degrees) at 8 MPH (7 knots; 3.6 m/s)
Visibility: 6 or more miles (10+ km)
Ceiling: at least 12,000 feet AGL
Clouds: few clouds at 1800 feet AGL
Weather: no significant weather observed at this time

METAR text: TTCP 242200Z 12012KT 9999 FEW018 28/23 Q1011 NOSIG
Conditions at: TTCP (CROWN PT/SCARBOR, TT) observed 2200 UTC 24 April 2019
Temperature: 28.0°C (82°F)
Dewpoint: 23.0°C (73°F) [RH = 74%]
Pressure (altimeter): 29.85 inches Hg (1011.0 mb)
Winds: from the ESE (120 degrees) at 14 MPH (12 knots; 6.2 m/s)
Visibility: 6 or more miles (10+ km)
Ceiling: at least 12,000 feet AGL
Clouds: few clouds at 1800 feet AGL
Weather: no significant weather observed at this time

METAR text: TTCP 242100Z 10010KT 9999 FEW018 28/23 Q1011 NOSIG
Conditions at: TTCP (CROWN PT/SCARBOR, TT) observed 2100 UTC 24 April 2019
Temperature: 28.0°C (82°F)
Dewpoint: 23.0°C (73°F) [RH = 74%]
Pressure (altimeter): 29.85 inches Hg (1011.0 mb)
Winds: from the E (100 degrees) at 12 MPH (10 knots; 5.1 m/s)
Visibility: 6 or more miles (10+ km)
Ceiling: at least 12,000 feet AGL
Clouds: few clouds at 1800 feet AGL
Weather: no significant weather observed at this time

METAR text: TTCP 242000Z 12012KT 9999 VCSH FEW018 28/23 Q1011 NOSIG RMK VCSH SW
Conditions at: TTCP (CROWN PT/SCARBOR, TT) observed 2000 UTC 24 April 2019
Temperature: 28.0°C (82°F)
Dewpoint: 23.0°C (73°F) [RH = 74%]
Pressure (altimeter): 29.85 inches Hg (1011.0 mb)
Winds: from the ESE (120 degrees) at 14 MPH (12 knots; 6.2 m/s)
Visibility: 6 or more miles (10+ km)
Ceiling: at least 12,000 feet AGL
Clouds: few clouds at 1800 feet AGL
Weather: VCSH  (showers in vicinity)

METAR text: TTCP 241900Z 11012KT 9999 FEW020 29/23 Q1011 NOSIG
Conditions at: TTCP (CROWN PT/SCARBOR, TT) observed 1900 UTC 24 April 2019
Temperature: 29.0°C (84°F)
Dewpoint: 23.0°C (73°F) [RH = 70%]
Pressure (altimeter): 29.85 inches Hg (1011.0 mb)
Winds: from the ESE (110 degrees) at 14 MPH (12 knots; 6.2 m/s)
Visibility: 6 or more miles (10+ km)
Ceiling: at least 12,000 feet AGL
Clouds: few clouds at 2000 feet AGL
Weather: no significant weather observed at this time

METAR text: TTCP 241800Z 13011KT 9999 FEW020 29/23 Q1012 NOSIG
Conditions at: TTCP (CROWN PT/SCARBOR, TT) observed 1800 UTC 24 April 2019
Temperature: 29.0°C (84°F)
Dewpoint: 23.0°C (73°F) [RH = 70%]
Pressure (altimeter): 29.88 inches Hg (1012.0 mb)
Winds: from the SE (130 degrees) at 13 MPH (11 knots; 5.7 m/s)
Visibility: 6 or more miles (10+ km)
Ceiling: at least 12,000 feet AGL
Clouds: few clouds at 2000 feet AGL
Weather: no significant weather observed at this time

METAR text: TTCP 241700Z 14010KT 9999 FEW020 30/23 Q1012 NOSIG
Conditions at: TTCP (CROWN PT/SCARBOR, TT) observed 1700 UTC 24 April 2019
Temperature: 30.0°C (86°F)
Dewpoint: 23.0°C (73°F) [RH = 66%]
Pressure (altimeter): 29.88 inches Hg (1012.0 mb)
Winds: from the SE (140 degrees) at 12 MPH (10 knots; 5.1 m/s)
Visibility: 6 or more miles (10+ km)
Ceiling: at least 12,000 feet AGL
Clouds: few clouds at 2000 feet AGL
Weather: no significant weather observed at this time

Forecast for: TTCP (CROWN PT/SCARBOR, TT)
Text: TAF TTCP 260400Z 2606/2706 09005KT 9999 FEW016
Forecast period: 0600 to 1100 UTC 26 April 2019
Forecast type: FROM: standard forecast or significant change
Winds: from the E (90 degrees) at 6 MPH (5 knots; 2.6 m/s)
Visibility: 6 or more miles 10+ km)
Ceiling: at least 12,000 feet AGL
Clouds: few clouds at 1600 feet AGL
Weather: no significant weather forecast for this period
Text: TEMPO 2606/2613 6000 SHRA SCT016 SCT036
Forecast period: 0600 to 1300 UTC 26 April 2019
Forecast type: TEMPORARY: The following changes expected for less than half the time period
Visibility: 4 miles (6 km)
Ceiling: at least 12,000 feet AGL
Clouds: scattered clouds at 1600 feet AGL
scattered clouds at 3600 feet AGL
Weather: SHRA  (rain showers)
Text: BECMG 2611/2613 10015KT SCT018
Forecast period: 1100 to 2300 UTC 26 April 2019
Forecast type: BECOMING: Conditions expected to become as follows by 1300 UTC 26 April 2019
Winds: from the E (100 degrees) at 17 MPH (15 knots; 7.7 m/s)
Visibility: 6 or more miles 10+ km)
Ceiling: at least 12,000 feet AGL
Clouds: scattered clouds at 1800 feet AGL
Weather: no significant weather forecast for this period
Text: PROB30
Forecast period: 1800 to 2200 UTC 26 April 2019
Forecast type: TEMPORARY: The following changes expected for less than half the time period
Visibility: 6 miles (9 km)
Ceiling: at least 12,000 feet AGL
Clouds: scattered clouds at 1600 feet AGL
Weather: SHRA  (rain showers)
Text: TEMPO 2618/2622 9000 SHRA SCT016
Forecast period: 2300 UTC 26 April 2019 to 0600 UTC 27 April 2019
Forecast type: BECOMING: Conditions expected to become as follows by 0100 UTC 27 April 2019
Winds: from the E (90 degrees) at 6 MPH (5 knots; 2.6 m/s)
Visibility: 6 or more miles 10+ km)
Ceiling: at least 12,000 feet AGL
Clouds: few clouds at 1800 feet AGL
Weather: no significant weather forecast for this period